Time;durP1;ratioP1;P1;durP2;ratioP2;P2;SDS_P1;SDS_P2;PMS_P1;PMS_P2;Temp;Humidity;BMP_temperature;BMP_pressure;BME280_temperature;BME280_humidity;BME280_pressure;Samples;Min_cycle;Max_cycle;Signal;HPM_P1;HPM_P2
2022/07/08 00:01:54;;;;;;;19.30;5.93;;;14.90;99.90;;;;;;4957989;28;20096;-75
2022/07/08 00:04:20;;;;;;;;;;;14.90;99.90;;;;;;4968423;28;20046;-74
2022/07/08 00:06:46;;;;;;;18.45;5.93;;;14.80;99.90;;;;;;4957368;28;19937;-74
2022/07/08 00:09:11;;;;;;;15.43;5.07;;;14.90;99.90;;;;;;4969919;28;20034;-74
2022/07/08 00:11:37;;;;;;;18.30;5.70;;;14.80;99.90;;;;;;4969508;28;20055;-74
2022/07/08 00:14:03;;;;;;;11.75;5.05;;;14.80;99.90;;;;;;4967864;28;20069;-74
2022/07/08 00:16:29;;;;;;;12.93;4.57;;;14.80;99.90;;;;;;4949215;28;20078;-74
2022/07/08 00:18:56;;;;;;;15.73;5.82;;;14.80;99.90;;;;;;4966608;28;20070;-74
2022/07/08 00:21:22;;;;;;;13.88;5.68;;;14.70;99.90;;;;;;4976564;28;20059;-74
2022/07/08 00:23:48;;;;;;;16.98;5.15;;;14.80;99.90;;;;;;4980298;28;20538;-74
2022/07/08 00:26:13;;;;;;;12.98;4.30;;;14.80;99.90;;;;;;4968523;28;20116;-75
2022/07/08 00:28:39;;;;;;;19.60;5.43;;;14.70;99.90;;;;;;4965744;28;20055;-75
2022/07/08 00:31:05;;;;;;;13.20;4.13;;;14.80;99.90;;;;;;4968615;28;20466;-75
2022/07/08 00:33:31;;;;;;;11.38;5.38;;;14.80;99.90;;;;;;4968518;28;20051;-75
2022/07/08 00:35:56;;;;;;;15.93;4.38;;;14.70;99.90;;;;;;4970645;28;20043;-74
2022/07/08 00:38:22;;;;;;;17.48;5.00;;;14.70;99.90;;;;;;4970428;28;20053;-74
2022/07/08 00:40:47;;;;;;;10.05;4.60;;;14.70;99.90;;;;;;4969656;28;20048;-74
2022/07/08 00:43:37;;;;;;;15.50;4.90;;;14.70;99.90;;;;;;4988327;28;20411;-75
2022/07/08 00:46:04;;;;;;;13.18;4.60;;;14.70;99.90;;;;;;4970356;28;20054;-75
2022/07/08 00:48:29;;;;;;;17.10;5.25;;;14.70;99.90;;;;;;4981326;28;20407;-75
2022/07/08 00:50:58;;;;;;;11.02;4.60;;;14.70;99.90;;;;;;4967420;28;20054;-75
2022/07/08 00:53:24;;;;;;;10.55;4.45;;;14.70;99.90;;;;;;4971091;28;20113;-75
2022/07/08 00:55:50;;;;;;;10.57;4.00;;;14.70;99.90;;;;;;4989802;28;20047;-75
2022/07/08 00:58:16;;;;;;;20.70;5.55;;;14.70;99.90;;;;;;4991337;28;20413;-75
2022/07/08 01:00:42;;;;;;;17.60;5.45;;;14.60;99.90;;;;;;4974038;28;20058;-75
2022/07/08 01:03:08;;;;;;;12.57;4.57;;;14.60;99.90;;;;;;4990244;28;20113;-75
2022/07/08 01:05:34;;;;;;;11.10;4.28;;;14.60;99.90;;;;;;4974526;28;20537;-75
2022/07/08 01:07:59;;;;;;;11.05;3.65;;;14.60;99.90;;;;;;4973625;28;20093;-75
2022/07/08 01:10:25;;;;;;;11.57;4.97;;;14.50;99.90;;;;;;4973821;28;20502;-75
2022/07/08 01:12:51;;;;;;;17.52;4.78;;;14.60;99.90;;;;;;4974139;28;20047;-75
2022/07/08 01:15:17;;;;;;;12.77;4.47;;;14.50;99.90;;;;;;4986344;28;20038;-74
2022/07/08 01:17:43;;;;;;;19.70;5.47;;;14.50;99.90;;;;;;4974185;28;20499;-74
2022/07/08 01:20:11;;;;;;;20.27;5.00;;;14.40;99.90;;;;;;4974636;28;20073;-75
2022/07/08 01:22:37;;;;;;;8.88;4.45;;;14.40;99.90;;;;;;4973583;28;20085;-75
2022/07/08 01:25:05;;;;;;;11.88;4.82;;;14.40;99.90;;;;;;4974043;28;20090;-76
2022/07/08 01:27:30;;;;;;;11.38;4.38;;;14.40;99.90;;;;;;4972621;28;20096;-74
2022/07/08 01:29:57;;;;;;;15.57;5.63;;;14.40;99.90;;;;;;4971287;28;20054;-75
2022/07/08 01:32:23;;;;;;;11.43;5.22;;;14.40;99.90;;;;;;4973996;28;20066;-74
2022/07/08 01:34:48;;;;;;;14.32;4.53;;;14.30;99.90;;;;;;4973962;28;20419;-75
2022/07/08 01:37:14;;;;;;;20.00;4.43;;;14.30;99.90;;;;;;4970254;28;20165;-75
2022/07/08 01:39:40;;;;;;;12.82;5.15;;;14.20;99.90;;;;;;4960497;28;20527;-74
2022/07/08 01:42:05;;;;;;;12.55;4.47;;;14.20;99.90;;;;;;4966717;28;20054;-75
2022/07/08 01:44:32;;;;;;;18.17;5.22;;;14.20;99.90;;;;;;4969003;28;20122;-74
2022/07/08 01:46:57;;;;;;;14.40;4.13;;;14.10;99.90;;;;;;4971196;28;20122;-74
2022/07/08 01:49:23;;;;;;;11.18;4.80;;;14.10;99.90;;;;;;4970413;28;20149;-75
2022/07/08 01:51:48;;;;;;;15.02;4.80;;;14.00;99.90;;;;;;4966717;28;20046;-74
2022/07/08 01:54:14;;;;;;;10.75;4.30;;;13.90;99.90;;;;;;4970725;28;20125;-75
2022/07/08 01:56:41;;;;;;;12.07;4.45;;;13.90;99.90;;;;;;4971841;28;20463;-74
2022/07/08 01:59:07;;;;;;;15.77;5.03;;;13.80;99.90;;;;;;4970258;28;20171;-75
2022/07/08 02:01:32;;;;;;;13.80;4.97;;;13.80;99.90;;;;;;4986269;28;20397;-74
2022/07/08 02:04:01;;;;;;;9.00;3.88;;;13.70;99.90;;;;;;4971415;28;20039;-75
2022/07/08 02:06:28;;;;;;;10.32;4.15;;;13.70;99.90;;;;;;4986423;28;20393;-75
2022/07/08 02:08:54;;;;;;;11.10;4.50;;;13.70;99.90;;;;;;4970635;28;20082;-75
2022/07/08 02:14:04;;;;;;;10.95;4.72;;;13.60;99.90;;;;;;4958225;28;20046;-74
2022/07/08 02:16:30;;;;;;;13.75;4.25;;;13.50;99.90;;;;;;4970228;28;20042;-74
2022/07/08 02:18:56;;;;;;;7.18;4.20;;;13.50;99.90;;;;;;4970627;28;20054;-74
2022/07/08 02:21:22;;;;;;;10.25;5.43;;;13.40;99.90;;;;;;4970918;28;20043;-74
2022/07/08 02:23:48;;;;;;;13.05;5.85;;;13.40;99.90;;;;;;4970359;28;20035;-74
2022/07/08 02:26:13;;;;;;;12.20;4.68;;;13.30;99.90;;;;;;4970928;28;20214;-74
2022/07/08 02:28:39;;;;;;;15.07;5.28;;;13.40;99.90;;;;;;4966544;28;20047;-75
2022/07/08 02:31:05;;;;;;;10.82;4.80;;;13.30;99.90;;;;;;4970825;28;20162;-74
2022/07/08 02:33:30;;;;;;;13.05;4.47;;;13.20;99.90;;;;;;4970881;28;20042;-74
2022/07/08 02:35:56;;;;;;;19.42;5.15;;;13.20;99.90;;;;;;4972285;28;20135;-74
2022/07/08 02:38:22;;;;;;;38.80;5.88;;;13.20;99.90;;;;;;4972734;28;20057;-74
2022/07/08 02:40:48;;;;;;;13.98;4.75;;;13.10;99.90;;;;;;4971071;28;20440;-75
2022/07/08 02:43:14;;;;;;;18.42;5.30;;;13.10;99.90;;;;;;4969818;28;20145;-75
2022/07/08 02:45:40;;;;;;;7.20;3.97;;;13.00;99.90;;;;;;4968664;28;20050;-74
2022/07/08 02:48:06;;;;;;;10.35;4.63;;;13.00;99.90;;;;;;4972294;28;20053;-75
2022/07/08 02:50:35;;;;;;;14.20;5.05;;;13.00;99.90;;;;;;4972683;28;20077;-75
2022/07/08 02:53:01;;;;;;;14.40;4.70;;;13.00;99.90;;;;;;4969525;28;20047;-74
2022/07/08 02:55:26;;;;;;;21.85;5.07;;;13.00;99.90;;;;;;4972918;28;20046;-74
2022/07/08 02:57:52;;;;;;;9.95;5.47;;;12.90;99.90;;;;;;4988610;28;20384;-74
2022/07/08 03:00:18;;;;;;;12.43;5.13;;;12.90;99.90;;;;;;4964080;28;20050;-74
2022/07/08 03:02:43;;;;;;;16.02;5.03;;;12.90;99.90;;;;;;4978071;28;20432;-74
2022/07/08 03:05:10;;;;;;;21.88;6.10;;;12.80;99.90;;;;;;4989982;28;20046;-74
2022/07/08 03:07:36;;;;;;;10.98;5.60;;;12.90;99.90;;;;;;4989032;28;20058;-74
2022/07/08 03:10:01;;;;;;;10.20;4.55;;;12.80;99.90;;;;;;4972251;28;20061;-74
2022/07/08 03:12:27;;;;;;;13.10;5.35;;;12.80;99.90;;;;;;4973817;28;20062;-74
2022/07/08 03:14:53;;;;;;;10.20;4.95;;;12.80;99.90;;;;;;4986898;28;20141;-74
2022/07/08 03:17:18;;;;;;;23.13;6.28;;;12.80;99.90;;;;;;4989185;28;20522;-74
2022/07/08 03:19:44;;;;;;;12.75;4.97;;;12.70;99.90;;;;;;4971536;28;20047;-74
2022/07/08 03:22:09;;;;;;;16.80;6.43;;;12.80;99.90;;;;;;4971707;28;20057;-75
2022/07/08 03:24:35;;;;;;;21.45;6.18;;;12.80;99.90;;;;;;4971544;28;20061;-75
2022/07/08 03:27:01;;;;;;;21.25;6.45;;;12.70;99.90;;;;;;4988670;28;20151;-74
2022/07/08 03:29:26;;;;;;;20.17;6.90;;;12.70;99.90;;;;;;4983083;28;20055;-74
2022/07/08 03:31:53;;;;;;;17.90;6.57;;;12.70;99.90;;;;;;4968354;28;20042;-73
2022/07/08 03:34:19;;;;;;;10.82;5.10;;;12.70;99.90;;;;;;4970271;28;20411;-73
2022/07/08 03:36:44;;;;;;;9.90;5.60;;;12.70;99.90;;;;;;4967765;28;20055;-73
2022/07/08 03:39:11;;;;;;;11.35;5.50;;;12.70;99.90;;;;;;4967502;28;20101;-73
2022/07/08 03:41:36;;;;;;;15.50;5.60;;;12.70;99.90;;;;;;4968045;28;20054;-73
2022/07/08 03:44:02;;;;;;;8.65;5.10;;;12.70;99.90;;;;;;4966888;28;20101;-73
2022/07/08 03:46:28;;;;;;;16.00;5.43;;;12.70;99.90;;;;;;4968049;28;20310;-73
2022/07/08 03:48:53;;;;;;;10.68;4.85;;;12.70;99.90;;;;;;4967424;28;20062;-73
2022/07/08 03:51:20;;;;;;;15.52;6.97;;;12.70;99.90;;;;;;4952145;28;20054;-73
2022/07/08 03:53:45;;;;;;;16.02;5.80;;;12.70;99.90;;;;;;4960849;28;20066;-73
2022/07/08 03:56:11;;;;;;;13.77;5.28;;;12.70;99.90;;;;;;4964731;28;20055;-73
2022/07/08 03:58:38;;;;;;;16.70;6.18;;;12.70;99.90;;;;;;4964690;28;20081;-73
2022/07/08 04:01:04;;;;;;;16.15;6.57;;;12.70;99.90;;;;;;4966094;28;20051;-73
2022/07/08 04:03:31;;;;;;;17.02;6.93;;;12.70;99.90;;;;;;4963338;28;20057;-73
2022/07/08 04:05:56;;;;;;;17.98;7.47;;;12.80;99.90;;;;;;4967571;28;20053;-73
2022/07/08 04:08:22;;;;;;;19.60;7.07;;;12.80;99.90;;;;;;4968882;28;20050;-73
2022/07/08 04:10:48;;;;;;;23.42;8.75;;;12.80;99.90;;;;;;4967582;28;20046;-73
2022/07/08 04:13:14;;;;;;;13.52;6.03;;;12.80;99.90;;;;;;4968593;28;20125;-73
2022/07/08 04:15:40;;;;;;;15.73;7.53;;;12.90;99.90;;;;;;4968697;28;20048;-73
2022/07/08 04:18:06;;;;;;;22.20;8.07;;;12.90;99.90;;;;;;4971065;28;20138;-73
2022/07/08 04:20:31;;;;;;;15.77;6.68;;;13.00;99.90;;;;;;4968007;28;20050;-73
2022/07/08 04:22:57;;;;;;;18.20;7.88;;;13.00;99.90;;;;;;4968115;28;20455;-73
2022/07/08 04:25:23;;;;;;;15.93;9.63;;;13.00;99.90;;;;;;4957151;28;20130;-73
2022/07/08 04:27:48;;;;;;;12.88;7.78;;;12.90;99.90;;;;;;4963449;28;20039;-73
2022/07/08 04:30:15;;;;;;;24.35;8.00;;;12.90;99.90;;;;;;4964547;28;20050;-74
2022/07/08 04:32:41;;;;;;;18.05;8.30;;;13.00;99.90;;;;;;4967032;28;20050;-73
2022/07/08 04:35:07;;;;;;;18.55;8.32;;;13.00;99.90;;;;;;4968694;28;20064;-73
2022/07/08 04:37:32;;;;;;;13.88;7.47;;;13.00;99.90;;;;;;4966827;28;20051;-73
2022/07/08 04:39:58;;;;;;;12.77;7.28;;;13.00;99.90;;;;;;4959154;28;20412;-73
2022/07/08 04:42:24;;;;;;;15.23;9.10;;;13.00;99.90;;;;;;4959386;28;20058;-73
2022/07/08 04:44:50;;;;;;;24.40;8.43;;;13.00;99.90;;;;;;4962964;28;20452;-74
2022/07/08 04:47:16;;;;;;;14.45;7.25;;;13.10;99.90;;;;;;4983468;28;20878;-73
2022/07/08 04:49:42;;;;;;;23.10;8.68;;;13.10;99.90;;;;;;4966958;28;20436;-73
2022/07/08 04:52:07;;;;;;;17.40;8.70;;;13.10;99.90;;;;;;4966891;28;20089;-73
2022/07/08 04:54:34;;;;;;;27.30;9.10;;;13.10;99.90;;;;;;4966466;28;20064;-73
2022/07/08 04:57:00;;;;;;;30.17;8.30;;;13.10;99.90;;;;;;4968298;28;20050;-73
2022/07/08 04:59:25;;;;;;;22.17;8.45;;;13.10;99.90;;;;;;4963341;28;20301;-74
2022/07/08 05:01:51;;;;;;;16.83;7.55;;;13.20;99.90;;;;;;4962023;28;20058;-73
2022/07/08 05:04:17;;;;;;;20.23;7.93;;;13.20;99.90;;;;;;4962462;28;20047;-73
2022/07/08 05:06:43;;;;;;;17.65;7.47;;;13.30;99.90;;;;;;4968160;28;20624;-73
2022/07/08 05:09:08;;;;;;;18.98;8.07;;;13.30;99.90;;;;;;4968247;28;20050;-73
2022/07/08 05:11:34;;;;;;;15.57;6.78;;;13.40;99.90;;;;;;4967270;28;20117;-73
2022/07/08 05:14:00;;;;;;;27.38;7.32;;;13.40;99.90;;;;;;4967415;28;20042;-73
2022/07/08 05:16:27;;;;;;;21.58;8.00;;;13.50;99.90;;;;;;4967103;28;20054;-73
2022/07/08 05:18:52;;;;;;;18.95;7.10;;;13.50;99.90;;;;;;4964041;28;20101;-73
2022/07/08 05:21:18;;;;;;;13.85;6.45;;;13.50;99.90;;;;;;4961050;28;20889;-74
2022/07/08 05:23:44;;;;;;;15.98;6.90;;;13.60;99.90;;;;;;4966956;28;20046;-73
2022/07/08 05:26:09;;;;;;;16.10;7.50;;;13.70;99.90;;;;;;4967123;28;20130;-73
2022/07/08 05:28:35;;;;;;;13.93;6.85;;;13.80;99.90;;;;;;4965902;28;20051;-73
2022/07/08 05:31:01;;;;;;;24.85;7.35;;;14.00;99.90;;;;;;4968151;28;20401;-73
2022/07/08 05:33:28;;;;;;;24.13;7.72;;;14.00;99.90;;;;;;4953860;28;20047;-73
2022/07/08 05:35:54;;;;;;;14.95;7.20;;;14.10;99.90;;;;;;4969961;28;20404;-73
2022/07/08 05:38:20;;;;;;;14.20;6.65;;;14.30;99.90;;;;;;4980267;28;20055;-73
2022/07/08 05:40:45;;;;;;;16.92;6.20;;;14.30;99.90;;;;;;4980619;28;20057;-74
2022/07/08 05:43:11;;;;;;;17.48;7.10;;;14.40;99.90;;;;;;4986966;28;20055;-74
2022/07/08 05:45:37;;;;;;;14.10;6.32;;;14.50;99.90;;;;;;4990240;28;20038;-74
2022/07/08 05:48:02;;;;;;;19.23;6.40;;;14.60;99.90;;;;;;4973111;28;20433;-75
2022/07/08 05:50:28;;;;;;;29.23;7.03;;;14.70;99.90;;;;;;4990382;28;20050;-74
2022/07/08 05:52:54;;;;;;;13.95;6.30;;;14.80;99.90;;;;;;4972858;28;20537;-74
2022/07/08 05:55:19;;;;;;;15.68;6.85;;;14.80;99.90;;;;;;4990859;28;20053;-75
2022/07/08 05:57:45;;;;;;;17.98;6.47;;;15.00;99.90;;;;;;4973017;28;20038;-74
2022/07/08 06:00:11;;;;;;;17.20;6.40;;;15.10;99.90;;;;;;4976251;28;20157;-73
2022/07/08 06:02:37;;;;;;;25.38;6.80;;;15.20;99.90;;;;;;4971685;28;20056;-74
2022/07/08 06:05:03;;;;;;;16.17;7.03;;;15.20;99.90;;;;;;4990888;28;20038;-74
2022/07/08 06:07:29;;;;;;;18.92;5.80;;;15.20;99.90;;;;;;4989649;28;20406;-74
2022/07/08 06:09:54;;;;;;;19.95;5.95;;;15.30;99.90;;;;;;4990585;28;20047;-73
2022/07/08 06:12:21;;;;;;;15.02;5.43;;;15.40;99.90;;;;;;4990498;28;20084;-74
2022/07/08 06:14:47;;;;;;;18.42;5.43;;;15.40;99.90;;;;;;4977092;28;20050;-73
2022/07/08 06:17:12;;;;;;;15.07;5.65;;;15.50;99.90;;;;;;4982049;28;20056;-74
2022/07/08 06:19:38;;;;;;;22.52;5.53;;;15.60;99.90;;;;;;4969272;28;20129;-75
2022/07/08 06:22:04;;;;;;;19.27;5.75;;;15.60;99.90;;;;;;4984381;28;20046;-74
2022/07/08 06:24:29;;;;;;;25.02;6.55;;;15.70;99.90;;;;;;4971172;28;20108;-73
2022/07/08 06:26:55;;;;;;;19.88;4.70;;;15.80;99.90;;;;;;4990304;28;20381;-74
2022/07/08 06:29:20;;;;;;;27.80;7.05;;;15.80;99.90;;;;;;4992238;28;20038;-74
2022/07/08 06:31:46;;;;;;;21.63;6.68;;;15.80;99.90;;;;;;4988678;28;20058;-73
2022/07/08 06:34:12;;;;;;;13.00;5.28;;;15.80;99.90;;;;;;4973100;28;20109;-73
2022/07/08 06:36:37;;;;;;;14.25;5.15;;;15.90;99.90;;;;;;4989488;28;20497;-73
2022/07/08 06:39:03;;;;;;;17.80;5.40;;;16.00;99.90;;;;;;4968002;28;20042;-72
2022/07/08 06:41:29;;;;;;;14.45;5.95;;;16.10;99.90;;;;;;4989752;28;20042;-72
2022/07/08 06:43:55;;;;;;;15.02;5.53;;;16.10;99.90;;;;;;4995017;28;20054;-74
2022/07/08 06:46:20;;;;;;;11.30;4.97;;;16.20;99.90;;;;;;4967447;28;20046;-73
2022/07/08 06:48:46;;;;;;;9.35;5.68;;;16.20;99.90;;;;;;4966306;28;20120;-74
2022/07/08 06:51:12;;;;;;;17.20;5.68;;;16.30;99.90;;;;;;4987017;28;20051;-73
2022/07/08 06:56:36;;;;;;;21.60;5.63;;;16.40;99.90;;;;;;4945008;28;20121;-73
2022/07/08 06:59:02;;;;;;;15.15;4.68;;;16.50;99.90;;;;;;4968662;28;20120;-75
2022/07/08 07:01:28;;;;;;;14.05;4.75;;;16.60;99.90;;;;;;4989827;28;20044;-75
2022/07/08 07:03:53;;;;;;;14.10;6.00;;;16.60;99.90;;;;;;4972027;28;20046;-75
2022/07/08 07:06:19;;;;;;;18.88;6.20;;;16.70;99.90;;;;;;4987305;28;20081;-75
2022/07/08 07:08:46;;;;;;;17.08;5.03;;;16.70;99.90;;;;;;4966918;28;20041;-74
2022/07/08 07:11:12;;;;;;;14.05;5.88;;;16.80;99.90;;;;;;4983453;28;20582;-74
2022/07/08 07:13:38;;;;;;;21.15;5.70;;;16.80;99.90;;;;;;4970825;28;20035;-75
2022/07/08 07:16:04;;;;;;;13.07;4.55;;;16.90;99.90;;;;;;4970130;28;20078;-75
2022/07/08 07:18:29;;;;;;;21.95;4.85;;;17.00;99.90;;;;;;4976692;28;20117;-74
2022/07/08 07:20:55;;;;;;;19.63;4.75;;;17.00;99.90;;;;;;4985688;28;20042;-75
2022/07/08 07:23:21;;;;;;;16.52;5.63;;;17.10;99.90;;;;;;4994980;28;20050;-74
2022/07/08 07:25:46;;;;;;;12.73;5.35;;;17.10;99.90;;;;;;4971728;28;20121;-74
2022/07/08 07:28:12;;;;;;;14.43;4.47;;;17.10;99.90;;;;;;4985462;28;20088;-74
2022/07/08 07:30:37;;;;;;;18.55;5.40;;;17.20;99.90;;;;;;4988771;28;20709;-74
2022/07/08 07:33:03;;;;;;;18.17;5.43;;;17.30;99.90;;;;;;4980588;28;20077;-75
2022/07/08 07:35:29;;;;;;;16.75;5.47;;;17.30;99.90;;;;;;4978932;28;20093;-73
2022/07/08 07:37:54;;;;;;;17.25;5.50;;;17.40;99.90;;;;;;4988773;28;20393;-75
2022/07/08 07:40:20;;;;;;;15.43;5.70;;;17.50;99.90;;;;;;4988646;28;20465;-75
2022/07/08 07:42:45;;;;;;;21.70;6.03;;;17.50;99.90;;;;;;4987467;28;20052;-77
2022/07/08 07:45:11;;;;;;;23.42;6.22;;;17.50;99.90;;;;;;4988453;28;20046;-76
2022/07/08 07:47:37;;;;;;;17.85;4.40;;;17.50;99.90;;;;;;4988994;28;20060;-75
2022/07/08 07:50:03;;;;;;;11.80;4.35;;;17.60;99.90;;;;;;4978804;28;20112;-75
2022/07/08 07:52:29;;;;;;;11.13;4.68;;;17.60;99.90;;;;;;4993433;28;20048;-76
2022/07/08 07:54:55;;;;;;;17.20;5.43;;;17.70;99.90;;;;;;4983768;28;20034;-73
2022/07/08 07:57:20;;;;;;;12.32;4.82;;;17.70;99.90;;;;;;4987286;28;20038;-74
2022/07/08 07:59:46;;;;;;;13.80;5.05;;;17.80;99.90;;;;;;4986716;28;20528;-74
2022/07/08 08:02:11;;;;;;;13.82;5.53;;;17.80;99.90;;;;;;4988643;28;20162;-74
2022/07/08 08:04:37;;;;;;;18.75;5.05;;;17.80;99.90;;;;;;4987414;28;20133;-75
2022/07/08 08:07:03;;;;;;;11.98;4.85;;;17.90;99.90;;;;;;4988640;28;20086;-77
2022/07/08 08:09:31;;;;;;;17.27;5.57;;;17.80;99.90;;;;;;4987334;28;20042;-78
2022/07/08 08:11:56;;;;;;;11.00;4.07;;;17.90;99.90;;;;;;4989517;28;20038;-77
2022/07/08 08:14:22;;;;;;;27.27;5.60;;;17.90;99.90;;;;;;4993933;28;20068;-77
2022/07/08 08:16:47;;;;;;;23.15;5.90;;;17.90;99.90;;;;;;4988515;28;20054;-77
2022/07/08 08:19:13;;;;;;;53.30;6.43;;;17.90;99.90;;;;;;4985329;28;20046;-75
2022/07/08 08:21:39;;;;;;;14.88;5.38;;;17.90;99.90;;;;;;4987597;28;20058;-76
2022/07/08 08:24:05;;;;;;;12.27;4.32;;;18.00;99.90;;;;;;4966475;28;20054;-74
2022/07/08 08:26:30;;;;;;;19.95;6.05;;;18.10;99.90;;;;;;4987419;28;20530;-76
2022/07/08 08:28:58;;;;;;;36.63;7.28;;;18.10;99.90;;;;;;4987202;28;20606;-74
2022/07/08 08:31:24;;;;;;;11.27;4.10;;;18.10;99.90;;;;;;4970503;28;20412;-76
2022/07/08 08:33:49;;;;;;;17.63;4.57;;;18.20;99.90;;;;;;4982528;28;20039;-75
2022/07/08 08:36:15;;;;;;;11.15;4.85;;;18.20;99.90;;;;;;4978903;28;20053;-74
2022/07/08 08:38:41;;;;;;;12.77;4.68;;;18.20;99.90;;;;;;4986696;28;20591;-76
2022/07/08 08:41:07;;;;;;;9.80;4.78;;;18.20;99.90;;;;;;4984507;28;20054;-77
2022/07/08 08:43:33;;;;;;;23.55;5.40;;;18.20;99.90;;;;;;4966284;28;20078;-75
2022/07/08 08:45:59;;;;;;;17.45;4.82;;;18.20;99.90;;;;;;4967465;28;20093;-76
2022/07/08 08:48:25;;;;;;;17.27;5.30;;;18.20;99.90;;;;;;4959425;28;20045;-75
2022/07/08 08:51:02;;;;;;;35.28;5.88;;;18.20;99.90;;;;;;4979139;28;20043;-76
2022/07/08 08:53:38;;;;;;;29.75;5.90;;;18.20;99.90;;;;;;4980566;28;20125;-77
2022/07/08 08:56:07;;;;;;;26.08;6.95;;;18.20;99.90;;;;;;4968125;28;20096;-73
2022/07/08 08:58:33;;;;;;;25.42;4.70;;;18.30;99.90;;;;;;4974792;28;20102;-76
2022/07/08 09:00:59;;;;;;;13.75;4.57;;;18.40;99.90;;;;;;4987246;28;20104;-72
2022/07/08 09:03:25;;;;;;;13.30;4.88;;;18.50;99.90;;;;;;4966958;28;20105;-72
2022/07/08 09:05:51;;;;;;;13.80;5.18;;;18.70;99.90;;;;;;4962383;28;20668;-72
2022/07/08 09:08:16;;;;;;;14.00;4.68;;;18.80;99.90;;;;;;4968855;28;20056;-72
2022/07/08 09:10:42;;;;;;;12.35;5.10;;;18.90;99.90;;;;;;4987005;28;20527;-71
2022/07/08 09:13:14;;;;;;;26.17;6.03;;;19.00;99.90;;;;;;4971051;28;20043;-72
2022/07/08 09:15:45;;;;;;;13.50;4.43;;;19.00;99.90;;;;;;4989258;28;20046;-72
2022/07/08 09:18:13;;;;;;;23.08;5.63;;;19.00;99.90;;;;;;4991542;28;20137;-72
2022/07/08 09:20:44;;;;;;;14.45;5.05;;;18.90;99.90;;;;;;4971488;28;20051;-72
2022/07/08 09:23:22;;;;;;;13.13;5.05;;;18.90;99.90;;;;;;4990137;28;20534;-72
2022/07/08 09:25:48;;;;;;;;;;;18.90;99.90;;;;;;4990184;28;20086;-72
2022/07/08 09:28:16;;;;;;;17.10;4.43;;;18.80;99.90;;;;;;4990089;28;20025;-71
2022/07/08 09:30:45;;;;;;;18.88;5.78;;;18.90;99.90;;;;;;4960340;28;20133;-71
2022/07/08 09:33:11;;;;;;;10.77;4.63;;;18.90;99.90;;;;;;4990023;28;20145;-71
2022/07/08 09:35:39;;;;;;;15.15;5.18;;;19.00;99.90;;;;;;4993649;28;20100;-71
2022/07/08 09:38:07;;;;;;;13.15;5.70;;;19.20;99.90;;;;;;4970604;28;20594;-71
2022/07/08 09:40:34;;;;;;;22.10;6.50;;;19.10;99.90;;;;;;4971963;28;20055;-71
2022/07/08 09:43:01;;;;;;;16.38;5.43;;;19.20;99.90;;;;;;4970667;28;20055;-71
2022/07/08 09:45:33;;;;;;;15.13;5.68;;;19.30;99.90;;;;;;4970519;28;20500;-71
2022/07/08 09:48:03;;;;;;;16.88;5.35;;;19.30;99.90;;;;;;4971221;28;20043;-71
2022/07/08 09:50:46;;;;;;;12.52;5.97;;;19.30;99.90;;;;;;4970542;28;20126;-71
2022/07/08 09:53:22;;;;;;;25.90;7.68;;;19.40;99.90;;;;;;4967878;28;20062;-71
2022/07/08 09:55:51;;;;;;;20.13;7.53;;;19.40;99.90;;;;;;4985726;28;20097;-71
2022/07/08 09:58:25;;;;;;;20.23;6.32;;;19.40;99.90;;;;;;4969857;28;20074;-72
2022/07/08 10:00:53;;;;;;;19.15;6.90;;;19.50;99.90;;;;;;4969633;28;20109;-71
2022/07/08 10:03:20;;;;;;;29.02;7.72;;;19.50;99.90;;;;;;4970130;28;20074;-71
2022/07/08 10:05:47;;;;;;;13.40;5.93;;;19.60;99.90;;;;;;4971164;28;20298;-72
2022/07/08 10:08:14;;;;;;;11.20;6.15;;;19.60;99.90;;;;;;4969666;28;20448;-71
2022/07/08 10:10:43;;;;;;;21.33;6.47;;;19.60;99.90;;;;;;4970070;28;20043;-72
2022/07/08 10:13:09;;;;;;;56.38;8.75;;;19.60;99.90;;;;;;4969313;28;20042;-72
2022/07/08 10:15:36;;;;;;;12.57;5.68;;;19.50;99.90;;;;;;4971155;28;20129;-72
2022/07/08 10:18:04;;;;;;;19.77;6.60;;;19.50;99.90;;;;;;4969711;28;20070;-72
2022/07/08 10:20:32;;;;;;;29.95;6.50;;;19.50;99.90;;;;;;4956157;28;20767;-72
2022/07/08 10:23:04;;;;;;;34.58;7.15;;;19.40;99.90;;;;;;4970073;28;20051;-72
2022/07/08 10:25:30;;;;;;;17.73;7.25;;;19.40;99.90;;;;;;4969534;28;20483;-73
2022/07/08 10:28:08;;;;;;;18.60;6.75;;;19.40;99.90;;;;;;4969478;28;20054;-73
2022/07/08 10:30:53;;;;;;;;;;;19.40;99.90;;;;;;4962692;28;20047;-72
2022/07/08 10:33:28;;;;;;;18.67;6.07;;;19.30;99.90;;;;;;4969621;28;19922;-72
2022/07/08 10:36:05;;;;;;;10.52;5.32;;;19.40;99.90;;;;;;4984535;28;20043;-72
2022/07/08 10:38:34;;;;;;;21.38;5.90;;;19.40;99.90;;;;;;4982069;28;20064;-72
2022/07/08 10:41:01;;;;;;;26.52;7.38;;;19.50;99.90;;;;;;4964887;28;20043;-72
2022/07/08 10:43:28;;;;;;;20.33;8.33;;;19.50;99.90;;;;;;4967756;28;20039;-71
2022/07/08 10:46:04;;;;;;;13.77;7.20;;;19.50;99.90;;;;;;4971940;28;20133;-71
2022/07/08 10:48:40;;;;;;;13.23;6.50;;;19.60;99.90;;;;;;4964353;28;20059;-71
2022/07/08 10:51:45;;;;;;;21.05;6.63;;;19.80;99.90;;;;;;4958928;28;20512;-72
2022/07/08 10:54:24;;;;;;;9.38;5.65;;;19.90;99.90;;;;;;4975279;28;20484;-72
2022/07/08 10:56:58;;;;;;;17.35;6.03;;;20.10;99.90;;;;;;4973122;28;20672;-72
2022/07/08 10:59:32;;;;;;;26.52;6.30;;;20.20;99.90;;;;;;4973920;28;20488;-72
2022/07/08 11:02:13;;;;;;;11.05;5.93;;;20.40;99.90;;;;;;4974985;28;20062;-71
2022/07/08 11:04:39;;;;;;;11.63;5.75;;;20.60;99.90;;;;;;4992887;28;20100;-71
2022/07/08 11:07:17;;;;;;;18.33;7.45;;;20.70;99.90;;;;;;4970410;28;20083;-72
2022/07/08 11:09:48;;;;;;;24.52;7.72;;;20.90;99.90;;;;;;4969221;28;20082;-71
2022/07/08 11:12:20;;;;;;;21.90;6.25;;;21.00;99.90;;;;;;4971819;28;20055;-72
2022/07/08 11:14:48;;;;;;;17.08;7.03;;;20.90;99.90;;;;;;4972449;28;20118;-72
2022/07/08 11:17:18;;;;;;;22.45;6.90;;;21.00;99.90;;;;;;4966647;28;20133;-72
2022/07/08 11:19:44;;;;;;;83.18;11.07;;;21.00;99.90;;;;;;4960435;28;20125;-71
2022/07/08 11:22:11;;;;;;;13.85;6.93;;;21.20;99.90;;;;;;4969217;28;20057;-72
2022/07/08 11:24:38;;;;;;;12.23;6.18;;;21.40;99.90;;;;;;4964773;28;20501;-72
2022/07/08 11:27:05;;;;;;;11.45;6.72;;;21.40;99.90;;;;;;4958398;28;20043;-73
2022/07/08 11:29:31;;;;;;;17.42;6.63;;;21.40;99.90;;;;;;4977167;28;20504;-73
2022/07/08 11:31:57;;;;;;;20.50;7.25;;;21.40;99.90;;;;;;4970528;28;20057;-71
2022/07/08 11:34:24;;;;;;;30.00;8.20;;;21.50;99.90;;;;;;4967261;28;20043;-71
2022/07/08 11:36:58;;;;;;;18.17;7.50;;;21.50;99.90;;;;;;4969007;28;20116;-71
2022/07/08 11:39:24;;;;;;;49.40;9.18;;;21.60;99.90;;;;;;4973596;28;20057;-72
2022/07/08 11:41:51;;;;;;;14.60;8.00;;;21.50;99.90;;;;;;4965518;28;20047;-74
2022/07/08 11:44:20;;;;;;;6.95;6.05;;;21.50;99.90;;;;;;4975568;28;20051;-74
2022/07/08 11:46:53;;;;;;;18.80;7.57;;;21.60;99.90;;;;;;4985741;28;20061;-73
2022/07/08 11:49:20;;;;;;;12.07;7.22;;;21.70;99.90;;;;;;4986308;28;20135;-72
2022/07/08 11:51:51;;;;;;;25.60;6.78;;;21.80;99.90;;;;;;4970440;28;20103;-72
2022/07/08 11:54:23;;;;;;;12.18;6.63;;;21.80;99.90;;;;;;4988813;28;20058;-73
2022/07/08 11:56:56;;;;;;;13.88;6.93;;;21.80;99.90;;;;;;4970913;28;20705;-72
2022/07/08 11:59:26;;;;;;;14.95;7.18;;;22.00;99.90;;;;;;4973702;28;20055;-72
2022/07/08 12:01:53;;;;;;;20.13;6.68;;;22.20;99.90;;;;;;4981352;28;20047;-72
2022/07/08 12:04:19;;;;;;;15.00;6.15;;;22.40;99.90;;;;;;4994937;28;20569;-72
2022/07/08 12:06:53;;;;;;;9.63;6.50;;;22.50;99.90;;;;;;4968530;28;20055;-72
2022/07/08 12:09:21;;;;;;;13.00;5.32;;;22.50;99.90;;;;;;4964006;28;20492;-73
2022/07/08 12:11:53;;;;;;;12.80;6.05;;;22.50;99.90;;;;;;4969776;28;20083;-73
2022/07/08 12:14:19;;;;;;;6.47;4.75;;;22.50;99.90;;;;;;4967840;28;20104;-71
2022/07/08 12:16:54;;;;;;;16.35;5.97;;;22.60;99.90;;;;;;4967043;28;20030;-71
2022/07/08 12:19:37;;;;;;;25.98;5.72;;;22.70;99.90;;;;;;4971482;28;20074;-72
2022/07/08 12:22:05;;;;;;;11.57;6.07;;;22.80;99.90;;;;;;4969924;28;20081;-72
2022/07/08 12:24:36;;;;;;;12.68;5.78;;;22.70;99.90;;;;;;4970893;28;20495;-73
2022/07/08 12:27:06;;;;;;;14.85;6.35;;;22.70;99.90;;;;;;4969773;28;20412;-72
2022/07/08 12:29:36;;;;;;;14.43;6.35;;;22.80;99.90;;;;;;4963637;28;20043;-71
2022/07/08 12:32:07;;;;;;;13.25;5.93;;;22.90;99.90;;;;;;4978664;28;20050;-72
2022/07/08 12:34:33;;;;;;;9.73;5.55;;;23.00;99.90;;;;;;4960478;28;20053;-72
2022/07/08 12:37:21;;;;;;;10.63;6.30;;;23.10;99.90;;;;;;4985162;28;20051;-72
2022/07/08 12:39:47;;;;;;;13.10;5.47;;;23.10;99.90;;;;;;4978284;28;20066;-73
2022/07/08 12:42:24;;;;;;;10.65;6.03;;;23.00;99.90;;;;;;4981039;28;20173;-72
2022/07/08 12:44:51;;;;;;;25.17;7.45;;;22.90;99.90;;;;;;4970436;28;20092;-73